createdAt,value
2019-01-20T00:02:01.050Z,87.50
2019-01-20T00:04:29.462Z,87.60
2019-01-20T00:06:57.825Z,87.70
2019-01-20T00:09:26.186Z,87.70
2019-01-20T00:11:54.592Z,87.70
2019-01-20T00:14:22.958Z,87.70
2019-01-20T00:16:52.789Z,87.50
2019-01-20T00:19:21.847Z,87.10
2019-01-20T00:21:51.416Z,86.50
2019-01-20T00:24:19.890Z,87.10
2019-01-20T00:26:48.300Z,86.30
2019-01-20T00:29:16.667Z,86.60
2019-01-20T00:31:45.031Z,87.30
2019-01-20T00:34:13.480Z,87.20
2019-01-20T00:36:42.099Z,86.60
2019-01-20T00:39:10.467Z,86.60
2019-01-20T00:41:38.875Z,86.40
2019-01-20T00:44:07.245Z,86.70
2019-01-20T00:46:35.939Z,87.20
2019-01-20T00:49:04.334Z,87.70
2019-01-20T00:51:33.070Z,87.50
2019-01-20T00:54:01.602Z,87.00
2019-01-20T00:56:30.666Z,87.30
2019-01-20T00:58:59.031Z,87.80
2019-01-20T01:01:27.390Z,88.00
2019-01-20T01:03:55.786Z,88.20
2019-01-20T01:06:24.160Z,88.20
2019-01-20T01:08:52.547Z,87.80
2019-01-20T01:11:20.962Z,87.70
2019-01-20T01:13:49.336Z,87.50
2019-01-20T01:16:17.702Z,87.40
2019-01-20T01:18:47.951Z,87.10
2019-01-20T01:21:16.325Z,86.80
2019-01-20T01:23:44.687Z,87.70
2019-01-20T01:26:13.099Z,86.80
2019-01-20T01:28:41.464Z,87.10
2019-01-20T01:31:09.835Z,87.00
2019-01-20T01:33:38.227Z,86.80
2019-01-20T01:36:06.597Z,86.80
2019-01-20T01:38:34.958Z,87.00
2019-01-20T01:41:04.522Z,86.60
2019-01-20T01:43:32.882Z,87.00
2019-01-20T01:46:01.244Z,87.50
2019-01-20T01:48:29.700Z,87.20
2019-01-20T01:50:58.066Z,87.60
2019-01-20T01:53:26.438Z,87.80
2019-01-20T01:55:54.843Z,86.90
2019-01-20T01:58:23.218Z,87.00
2019-01-20T02:00:51.582Z,87.10
2019-01-20T02:03:20.700Z,86.80
2019-01-20T02:05:49.077Z,86.80
2019-01-20T02:08:17.451Z,87.20
2019-01-20T02:10:45.864Z,87.60
2019-01-20T02:13:14.235Z,86.80
2019-01-20T02:15:43.534Z,87.50
2019-01-20T02:18:11.859Z,86.40
2019-01-20T02:20:41.255Z,85.40
2019-01-20T02:23:09.626Z,86.30
2019-01-20T02:25:39.306Z,86.30
2019-01-20T02:28:08.044Z,86.80
2019-01-20T02:30:36.412Z,87.10
2019-01-20T02:33:04.814Z,86.60
2019-01-20T02:35:33.195Z,87.80
2019-01-20T02:38:01.568Z,87.80
2019-01-20T02:40:29.980Z,87.70
2019-01-20T02:42:58.361Z,87.50
2019-01-20T02:45:26.723Z,87.50
2019-01-20T02:47:56.194Z,87.60
2019-01-20T02:50:24.568Z,87.60
2019-01-20T02:52:52.940Z,86.30
2019-01-20T02:55:21.338Z,87.00
2019-01-20T02:57:49.807Z,88.40
2019-01-20T03:00:22.859Z,88.70
2019-01-20T03:02:51.350Z,89.10
2019-01-20T03:05:20.755Z,88.80
2019-01-20T03:07:49.158Z,89.60
2019-01-20T03:10:18.599Z,89.70
2019-01-20T03:12:46.970Z,88.90
2019-01-20T03:15:15.339Z,89.10
2019-01-20T03:17:43.744Z,89.10
2019-01-20T03:20:14.760Z,87.90
2019-01-20T03:22:45.367Z,88.20
2019-01-20T03:25:15.311Z,88.20
2019-01-20T03:27:43.691Z,88.00
2019-01-20T03:30:14.511Z,90.00
2019-01-20T03:32:43.835Z,89.30
2019-01-20T03:35:12.841Z,88.90
2019-01-20T03:37:41.219Z,88.20
2019-01-20T03:40:12.874Z,87.80
2019-01-20T03:42:41.244Z,88.20
2019-01-20T03:45:12.457Z,87.60
2019-01-20T03:47:40.866Z,88.50
2019-01-20T03:50:11.189Z,89.10
2019-01-20T03:52:39.547Z,89.50
2019-01-20T03:55:11.755Z,90.30
2019-01-20T03:57:40.129Z,89.60
2019-01-20T04:00:14.814Z,88.90
2019-01-20T04:02:43.583Z,88.30
2019-01-20T04:05:11.951Z,89.40
2019-01-20T04:07:40.324Z,88.90
2019-01-20T04:10:12.068Z,89.10
2019-01-20T04:12:40.443Z,88.40
2019-01-20T04:15:09.762Z,89.10
2019-01-20T04:17:38.924Z,89.30
2019-01-20T04:20:08.826Z,89.20
2019-01-20T04:22:37.205Z,89.20
2019-01-20T04:25:10.041Z,89.00
2019-01-20T04:27:38.730Z,88.70
2019-01-20T04:30:09.446Z,88.50
2019-01-20T04:32:37.849Z,88.40
2019-01-20T04:35:08.159Z,90.10
2019-01-20T04:37:36.532Z,89.20
2019-01-20T04:40:11.567Z,89.80
2019-01-20T04:42:39.940Z,89.70
2019-01-20T04:45:11.059Z,89.20
2019-01-20T04:47:39.474Z,89.10
2019-01-20T04:50:10.987Z,89.30
2019-01-20T04:52:39.355Z,89.70
2019-01-20T04:55:09.699Z,89.40
2019-01-20T04:57:38.494Z,88.70
2019-01-20T05:00:10.132Z,88.00
2019-01-20T05:02:39.487Z,87.70
2019-01-20T05:05:07.855Z,88.40
2019-01-20T05:07:36.227Z,89.20
2019-01-20T05:10:10.491Z,89.10
2019-01-20T05:12:38.866Z,88.90
2019-01-20T05:15:16.205Z,88.00
2019-01-20T05:17:44.896Z,87.20
2019-01-20T05:20:13.267Z,87.40
2019-01-20T05:22:42.623Z,87.80
2019-01-20T05:25:11.844Z,87.90
2019-01-20T05:27:40.866Z,88.00
2019-01-20T05:30:12.415Z,88.80
2019-01-20T05:32:41.104Z,88.90
2019-01-20T05:35:10.618Z,88.90
2019-01-20T05:37:39.016Z,87.70
2019-01-20T05:40:17.371Z,87.70
2019-01-20T05:42:46.781Z,89.20
2019-01-20T05:45:21.142Z,88.90
2019-01-20T05:47:49.520Z,88.40
2019-01-20T05:50:17.924Z,88.20
2019-01-20T05:52:46.299Z,88.40
2019-01-20T05:55:15.307Z,87.70
2019-01-20T05:57:44.447Z,87.70
2019-01-20T06:00:16.078Z,88.60
2019-01-20T06:02:44.463Z,88.10
2019-01-20T06:05:12.867Z,87.60
2019-01-20T06:07:41.271Z,87.60
2019-01-20T06:10:11.878Z,88.10
2019-01-20T06:12:40.285Z,88.90
2019-01-20T06:15:17.016Z,88.40
2019-01-20T06:17:48.639Z,88.20
2019-01-20T06:20:17.455Z,88.00
2019-01-20T06:22:46.115Z,87.80
2019-01-20T06:25:14.545Z,87.70
2019-01-20T06:27:42.908Z,87.70
2019-01-20T06:30:18.538Z,88.20
2019-01-20T06:33:06.353Z,88.60
2019-01-20T06:35:35.355Z,87.90
2019-01-20T06:38:03.729Z,88.20
2019-01-20T06:40:32.100Z,88.20
2019-01-20T06:43:02.268Z,88.60
2019-01-20T06:45:30.523Z,88.80
2019-01-20T06:47:58.959Z,88.40
2019-01-20T06:50:27.324Z,87.60
2019-01-20T06:52:55.711Z,87.90
2019-01-20T06:55:24.087Z,88.00
2019-01-20T06:57:53.014Z,88.30
2019-01-20T07:00:22.641Z,88.30
2019-01-20T07:02:50.996Z,87.30
2019-01-20T07:05:19.411Z,88.10
2019-01-20T07:07:47.847Z,88.60
2019-01-20T07:10:17.664Z,87.90
2019-01-20T07:12:46.067Z,87.40
2019-01-20T07:15:19.405Z,87.80
2019-01-20T07:17:47.770Z,88.30
2019-01-20T07:20:17.628Z,88.50
2019-01-20T07:22:45.995Z,88.20
2019-01-20T07:25:14.379Z,88.10
2019-01-20T07:27:42.778Z,88.50
2019-01-20T07:30:20.233Z,89.10
2019-01-20T07:32:50.005Z,88.50
2019-01-20T07:35:19.263Z,87.80
2019-01-20T07:37:47.704Z,87.80
2019-01-20T07:40:19.354Z,87.70
2019-01-20T07:42:47.720Z,87.70
2019-01-20T07:45:17.330Z,87.70
2019-01-20T07:47:45.750Z,86.80
2019-01-20T07:50:16.363Z,87.30
2019-01-20T07:52:44.734Z,87.80
2019-01-20T07:55:13.135Z,87.50
2019-01-20T07:57:41.511Z,87.50
2019-01-20T08:00:19.571Z,87.70
2019-01-20T08:02:47.947Z,87.70
2019-01-20T08:05:16.592Z,87.50
2019-01-20T08:07:45.011Z,88.20
2019-01-20T08:10:21.531Z,87.40
2019-01-20T08:12:49.952Z,87.40
2019-01-20T08:15:18.328Z,87.10
2019-01-20T08:17:46.704Z,87.10
2019-01-20T08:20:18.579Z,88.10
2019-01-20T08:22:46.942Z,88.00
2019-01-20T08:25:16.755Z,87.80
2019-01-20T08:27:45.160Z,87.20
2019-01-20T08:30:16.227Z,87.20
2019-01-20T08:32:44.609Z,87.20
2019-01-20T08:35:14.138Z,87.50
2019-01-20T08:37:42.521Z,88.00
2019-01-20T08:40:26.433Z,88.20
2019-01-20T08:42:54.783Z,87.90
2019-01-20T08:45:41.581Z,87.70
2019-01-20T08:48:16.643Z,88.00
2019-01-20T08:50:45.018Z,87.00
2019-01-20T08:53:13.439Z,87.00
2019-01-20T08:55:41.811Z,86.60
2019-01-20T08:58:10.184Z,86.40
2019-01-20T09:00:40.725Z,86.40
2019-01-20T09:03:09.159Z,86.60
2019-01-20T09:05:37.522Z,86.80
2019-01-20T09:08:05.937Z,87.30
2019-01-20T09:10:34.314Z,85.90
2019-01-20T09:13:04.318Z,85.00
2019-01-20T09:15:32.723Z,81.40
2019-01-20T09:18:01.094Z,80.70
2019-01-20T09:20:29.459Z,62.40
2019-01-20T09:22:58.906Z,53.70
2019-01-20T09:25:27.270Z,49.10
2019-01-20T09:27:55.651Z,48.00
2019-01-20T09:30:24.419Z,45.30
2019-01-20T09:32:52.797Z,42.50
2019-01-20T09:35:22.498Z,44.70
2019-01-20T09:37:50.888Z,42.20
2019-01-20T09:40:19.258Z,41.30
2019-01-20T09:42:49.091Z,41.00
2019-01-20T09:45:27.523Z,39.20
2019-01-20T09:47:56.863Z,36.60
2019-01-20T09:50:25.245Z,38.40
2019-01-20T09:52:53.904Z,40.30
2019-01-20T09:55:22.297Z,36.40
2019-01-20T09:57:50.659Z,35.30
2019-01-20T10:00:21.602Z,33.80
2019-01-20T10:02:50.843Z,34.30
2019-01-20T10:05:19.217Z,34.80
2019-01-20T10:07:47.655Z,30.70
2019-01-20T10:10:18.026Z,32.60
2019-01-20T10:12:46.464Z,34.30
2019-01-20T10:15:16.580Z,33.00
2019-01-20T10:17:44.982Z,32.40
2019-01-20T10:20:22.092Z,30.10
2019-01-20T10:22:51.614Z,30.50
2019-01-20T10:25:20.162Z,29.50
2019-01-20T10:27:48.835Z,30.00
2019-01-20T10:30:22.983Z,29.70
2019-01-20T10:32:51.354Z,29.00
2019-01-20T10:35:21.366Z,29.40
2019-01-20T10:37:51.063Z,28.10
2019-01-20T10:40:19.440Z,28.90
2019-01-20T10:42:47.807Z,26.40
2019-01-20T10:45:16.991Z,27.10
2019-01-20T10:47:45.363Z,26.10
2019-01-20T10:50:15.770Z,27.80
2019-01-20T10:52:44.227Z,26.80
2019-01-20T10:55:12.603Z,26.30
2019-01-20T10:57:40.981Z,26.90
2019-01-20T11:00:15.706Z,27.00
2019-01-20T11:02:44.075Z,27.10
2019-01-20T11:05:12.466Z,26.10
2019-01-20T11:07:41.451Z,25.20
2019-01-20T11:10:11.264Z,25.50
2019-01-20T11:12:40.923Z,25.40
2019-01-20T11:15:11.800Z,26.50
2019-01-20T11:17:40.164Z,25.20
2019-01-20T11:20:16.803Z,25.50
2019-01-20T11:22:45.179Z,26.20
2019-01-20T11:25:16.811Z,24.80
2019-01-20T11:27:45.971Z,24.50
2019-01-20T11:30:14.335Z,25.20
2019-01-20T11:32:42.717Z,24.80
2019-01-20T11:35:17.292Z,25.20
2019-01-20T11:37:45.674Z,25.00
2019-01-20T11:40:15.353Z,25.30
2019-01-20T11:42:43.760Z,24.60
2019-01-20T11:45:15.409Z,24.90
2019-01-20T11:47:43.778Z,24.90
2019-01-20T11:50:14.259Z,24.40
2019-01-20T11:52:42.640Z,24.50
2019-01-20T11:55:16.951Z,24.30
2019-01-20T11:57:45.367Z,24.30
2019-01-20T12:00:22.391Z,25.50
2019-01-20T12:02:50.840Z,25.20
2019-01-20T12:05:19.750Z,26.00
2019-01-20T12:07:48.122Z,25.50
2019-01-20T12:10:17.482Z,25.60
2019-01-20T12:12:47.487Z,25.50
2019-01-20T12:15:16.235Z,25.20
2019-01-20T12:17:44.650Z,25.20
2019-01-20T12:20:14.661Z,25.40
2019-01-20T12:22:43.207Z,26.70
2019-01-20T12:25:16.475Z,31.60
2019-01-20T12:27:44.837Z,36.80
2019-01-20T12:30:28.064Z,39.60
2019-01-20T12:32:56.427Z,42.00
2019-01-20T12:35:24.802Z,44.10
2019-01-20T12:37:53.202Z,44.50
2019-01-20T12:40:25.727Z,45.90
2019-01-20T12:42:54.090Z,46.30
2019-01-20T12:45:22.494Z,48.00
2019-01-20T12:47:50.795Z,48.10
2019-01-20T12:50:19.163Z,49.20
2019-01-20T12:52:48.247Z,49.90
2019-01-20T12:55:16.620Z,50.30
2019-01-20T12:57:44.989Z,50.80
2019-01-20T13:00:20.259Z,51.20
2019-01-20T13:02:48.698Z,50.00
2019-01-20T13:05:17.066Z,52.10
2019-01-20T13:07:45.481Z,53.10
2019-01-20T13:10:18.362Z,54.20
2019-01-20T13:12:46.788Z,53.60
2019-01-20T13:15:17.642Z,53.70
2019-01-20T13:17:46.007Z,53.50
2019-01-20T13:20:20.407Z,53.50
2019-01-20T13:22:48.809Z,54.10
2019-01-20T13:25:19.718Z,54.30
2019-01-20T13:27:48.086Z,54.30
2019-01-20T13:30:22.128Z,54.60
2019-01-20T13:32:50.488Z,54.60
2019-01-20T13:35:20.004Z,56.00
2019-01-20T13:37:51.311Z,56.40
2019-01-20T13:40:25.879Z,55.50
2019-01-20T13:42:55.884Z,55.80
2019-01-20T13:45:24.252Z,55.00
2019-01-20T13:47:52.623Z,55.80
2019-01-20T13:50:21.976Z,55.60
2019-01-20T13:52:50.340Z,53.80
2019-01-20T13:55:18.707Z,54.70
2019-01-20T13:57:47.116Z,55.30
2019-01-20T14:00:18.175Z,55.30
2019-01-20T14:02:46.471Z,54.90
2019-01-20T14:05:14.894Z,55.80
2019-01-20T14:07:43.263Z,55.70
2019-01-20T14:10:16.987Z,56.60
2019-01-20T14:12:46.026Z,56.10
2019-01-20T14:15:15.640Z,55.60
2019-01-20T14:17:45.044Z,56.20
2019-01-20T14:20:15.899Z,55.70
2019-01-20T14:22:44.268Z,56.10
2019-01-20T14:25:15.475Z,57.60
2019-01-20T14:27:43.883Z,58.50
2019-01-20T14:30:20.859Z,57.20
2019-01-20T14:32:49.969Z,56.30
2019-01-20T14:35:18.337Z,57.50
2019-01-20T14:37:46.708Z,56.90
2019-01-20T14:40:17.255Z,57.60
2019-01-20T14:42:45.628Z,57.50
2019-01-20T14:45:17.601Z,58.70
2019-01-20T14:47:46.007Z,58.60
2019-01-20T14:50:23.136Z,58.70
2019-01-20T14:52:52.798Z,60.60
2019-01-20T14:55:21.234Z,60.60
2019-01-20T14:57:49.940Z,61.40
2019-01-20T15:00:38.147Z,61.60
2019-01-20T15:03:07.250Z,60.70
2019-01-20T15:05:35.622Z,61.40
2019-01-20T15:08:05.007Z,62.80
2019-01-20T15:10:33.364Z,62.10
2019-01-20T15:13:01.727Z,61.60
2019-01-20T15:15:35.518Z,60.60
2019-01-20T15:18:04.279Z,63.20
2019-01-20T15:20:32.645Z,61.80
2019-01-20T15:23:01.048Z,64.00
2019-01-20T15:25:29.413Z,64.10
2019-01-20T15:27:57.783Z,64.00
2019-01-20T15:30:32.246Z,65.10
2019-01-20T15:33:02.219Z,64.40
2019-01-20T15:35:30.597Z,64.60
2019-01-20T15:37:58.988Z,64.60
2019-01-20T15:40:27.631Z,65.80
2019-01-20T15:42:56.076Z,66.80
2019-01-20T15:45:24.960Z,66.20
2019-01-20T15:47:54.020Z,66.50
2019-01-20T15:50:30.908Z,67.20
2019-01-20T15:52:59.280Z,68.10
2019-01-20T15:55:27.660Z,69.90
2019-01-20T15:57:56.058Z,70.60
2019-01-20T16:00:27.242Z,70.80
2019-01-20T16:02:55.610Z,71.10
2019-01-20T16:05:26.057Z,69.90
2019-01-20T16:07:54.424Z,70.30
2019-01-20T16:10:22.791Z,70.90
2019-01-20T16:12:51.191Z,71.40
2019-01-20T16:15:25.169Z,71.30
2019-01-20T16:17:54.723Z,71.70
2019-01-20T16:20:23.642Z,71.60
2019-01-20T16:22:52.448Z,73.00
2019-01-20T16:25:33.347Z,72.10
2019-01-20T16:28:01.724Z,72.70
2019-01-20T16:30:35.687Z,72.80
2019-01-20T16:33:04.094Z,73.20
2019-01-20T16:35:32.473Z,73.50
2019-01-20T16:38:01.574Z,73.20
2019-01-20T16:40:29.979Z,75.70
2019-01-20T16:42:58.347Z,75.10
2019-01-20T16:45:41.933Z,75.30
2019-01-20T16:48:07.659Z,75.70
2019-01-20T16:50:37.104Z,74.30
2019-01-20T16:53:05.535Z,74.00
2019-01-20T16:55:33.906Z,74.60
2019-01-20T16:58:02.665Z,73.80
2019-01-20T17:00:36.656Z,74.70
2019-01-20T17:03:05.028Z,75.10
2019-01-20T17:05:33.400Z,76.10
2019-01-20T17:08:02.704Z,76.30
2019-01-20T17:10:36.595Z,76.50
2019-01-20T17:13:05.407Z,76.00
2019-01-20T17:15:39.691Z,77.80
2019-01-20T17:18:07.836Z,78.90
2019-01-20T17:20:36.210Z,80.50
2019-01-20T17:23:05.593Z,79.10
2019-01-20T17:25:33.959Z,77.90
2019-01-20T17:28:02.334Z,77.70
2019-01-20T17:30:33.199Z,79.00
2019-01-20T17:33:01.907Z,78.70
2019-01-20T17:35:30.274Z,80.00
2019-01-20T17:37:58.680Z,81.50
2019-01-20T17:40:28.197Z,80.50
2019-01-20T17:42:56.838Z,80.70
2019-01-20T17:45:31.067Z,81.20
2019-01-20T17:47:59.438Z,80.40
2019-01-20T17:50:30.254Z,79.60
2019-01-20T17:53:00.696Z,78.70
2019-01-20T17:55:29.178Z,78.00
2019-01-20T17:57:57.538Z,78.60
2019-01-20T18:00:33.853Z,77.90
2019-01-20T18:03:02.214Z,77.10
2019-01-20T18:05:30.960Z,77.30
2019-01-20T18:07:59.386Z,77.50
2019-01-20T18:10:27.777Z,77.30
2019-01-20T18:12:56.143Z,78.00
2019-01-20T18:15:26.194Z,78.80
2019-01-20T18:17:54.560Z,79.10
2019-01-20T18:20:32.519Z,79.20
2019-01-20T18:23:00.897Z,79.60
2019-01-20T18:25:29.277Z,79.60
2019-01-20T18:27:57.675Z,79.60
2019-01-20T18:30:28.556Z,79.70
2019-01-20T18:32:56.923Z,79.80
2019-01-20T18:35:26.775Z,79.20
2019-01-20T18:37:55.154Z,80.00
2019-01-20T18:40:24.971Z,80.10
2019-01-20T18:42:53.554Z,79.40
2019-01-20T18:45:30.210Z,79.80
2019-01-20T18:47:58.651Z,80.40
2019-01-20T18:50:32.450Z,81.50
2019-01-20T18:53:00.827Z,81.50
2019-01-20T18:55:30.481Z,81.40
2019-01-20T18:57:58.851Z,81.50
2019-01-20T19:00:44.019Z,81.10
2019-01-20T19:03:12.391Z,80.80
2019-01-20T19:05:40.775Z,81.00
2019-01-20T19:08:09.191Z,80.30
2019-01-20T19:10:37.563Z,80.80
2019-01-20T19:13:05.944Z,80.90
2019-01-20T19:15:34.367Z,80.10
2019-01-20T19:18:02.821Z,80.10
2019-01-20T19:20:31.190Z,79.70
2019-01-20T19:23:01.059Z,81.50
2019-01-20T19:25:29.428Z,81.70
2019-01-20T19:27:57.805Z,81.60
2019-01-20T19:30:28.448Z,81.00
2019-01-20T19:32:56.823Z,80.30
2019-01-20T19:35:25.632Z,80.10
2019-01-20T19:37:54.036Z,80.00
2019-01-20T19:40:22.404Z,79.80
2019-01-20T19:42:50.776Z,80.10
2019-01-20T19:45:21.031Z,79.90
2019-01-20T19:47:49.575Z,80.20
2019-01-20T19:50:18.228Z,80.10
2019-01-20T19:52:46.600Z,80.40
2019-01-20T19:55:17.862Z,81.60
2019-01-20T19:57:47.939Z,81.30
2019-01-20T20:00:21.418Z,81.30
2019-01-20T20:02:49.786Z,81.20
2019-01-20T20:05:19.395Z,81.30
2019-01-20T20:07:49.075Z,81.00
2019-01-20T20:10:19.593Z,80.80
2019-01-20T20:12:48.016Z,81.70
2019-01-20T20:15:18.459Z,81.90
2019-01-20T20:17:47.232Z,81.20
2019-01-20T20:20:17.043Z,81.90
2019-01-20T20:22:45.471Z,82.20
2019-01-20T20:25:18.658Z,82.30
2019-01-20T20:27:47.040Z,82.60
2019-01-20T20:30:21.975Z,83.50
2019-01-20T20:32:50.347Z,81.90
2019-01-20T20:35:18.730Z,81.40
2019-01-20T20:37:47.156Z,81.70
2019-01-20T20:40:18.228Z,82.90
2019-01-20T20:42:46.608Z,82.60
2019-01-20T20:45:17.908Z,82.50
2019-01-20T20:47:46.280Z,83.50
2019-01-20T20:50:16.091Z,84.40
2019-01-20T20:52:46.111Z,83.50
2019-01-20T20:55:14.757Z,83.10
2019-01-20T20:57:43.133Z,84.30
2019-01-20T21:00:17.815Z,83.40
2019-01-20T21:02:46.187Z,83.50
2019-01-20T21:05:14.559Z,84.00
2019-01-20T21:07:42.971Z,84.70
2019-01-20T21:10:16.982Z,84.50
2019-01-20T21:12:45.371Z,83.90
2019-01-20T21:15:15.758Z,84.20
2019-01-20T21:17:48.300Z,85.00
2019-01-20T21:20:17.058Z,85.60
2019-01-20T21:22:45.473Z,85.20
2019-01-20T21:25:13.848Z,85.20
2019-01-20T21:27:42.219Z,85.20
2019-01-20T21:30:13.756Z,85.20
2019-01-20T21:32:42.129Z,85.40
2019-01-20T21:35:10.498Z,85.30
2019-01-20T21:37:39.223Z,85.60
2019-01-20T21:40:10.495Z,85.50
2019-01-20T21:42:38.866Z,85.70
2019-01-20T21:45:09.503Z,86.40
2019-01-20T21:47:37.877Z,86.10
2019-01-20T21:50:09.603Z,86.10
2019-01-20T21:52:38.017Z,85.90
2019-01-20T21:55:06.387Z,85.90
2019-01-20T21:57:34.760Z,86.20
2019-01-20T22:00:04.612Z,86.30
2019-01-20T22:02:35.506Z,85.90
2019-01-20T22:05:04.848Z,85.00
2019-01-20T22:07:33.256Z,84.70
2019-01-20T22:10:01.631Z,85.50
2019-01-20T22:12:30.004Z,85.60
2019-01-20T22:14:59.095Z,85.90
2019-01-20T22:17:27.472Z,86.40
2019-01-20T22:19:55.848Z,84.70
2019-01-20T22:22:24.250Z,85.60
2019-01-20T22:24:52.624Z,85.60
2019-01-20T22:27:20.996Z,85.40
2019-01-20T22:29:49.405Z,86.50
2019-01-20T22:32:17.776Z,87.70
2019-01-20T22:34:46.142Z,86.90
2019-01-20T22:37:15.496Z,86.30
2019-01-20T22:39:43.859Z,86.60
2019-01-20T22:42:12.232Z,86.80
2019-01-20T22:44:40.631Z,87.40
2019-01-20T22:47:09.004Z,86.20
2019-01-20T22:49:37.375Z,86.40
2019-01-20T22:52:05.795Z,84.50
2019-01-20T22:54:34.172Z,84.20
2019-01-20T22:57:02.548Z,84.50
2019-01-20T22:59:32.344Z,85.30
2019-01-20T23:02:00.783Z,86.80
2019-01-20T23:04:30.067Z,86.80
2019-01-20T23:06:58.486Z,86.20
2019-01-20T23:09:26.859Z,87.40
2019-01-20T23:11:55.230Z,86.80
2019-01-20T23:14:23.643Z,87.00
2019-01-20T23:16:52.020Z,86.00
2019-01-20T23:19:20.391Z,86.40
2019-01-20T23:21:49.821Z,86.20
2019-01-20T23:24:18.191Z,87.10
2019-01-20T23:26:46.566Z,87.00
2019-01-20T23:29:14.986Z,86.80
2019-01-20T23:31:43.357Z,87.10
2019-01-20T23:34:11.729Z,86.30
2019-01-20T23:36:40.168Z,86.80
2019-01-20T23:39:08.590Z,86.50
2019-01-20T23:41:36.958Z,86.80
2019-01-20T23:44:06.163Z,87.10
2019-01-20T23:46:34.536Z,87.60
2019-01-20T23:49:02.906Z,87.10
2019-01-20T23:51:31.322Z,87.00
2019-01-20T23:53:59.691Z,89.30
2019-01-20T23:56:28.064Z,88.00
2019-01-20T23:58:56.466Z,87.10
